createdAt,value
2018-04-23T00:02:16.631Z,5.07
2018-04-23T00:04:44.101Z,4.43
2018-04-23T00:07:11.624Z,4.73
2018-04-23T00:09:39.090Z,5.53
2018-04-23T00:12:06.581Z,5.27
2018-04-23T00:14:34.046Z,6.27
2018-04-23T00:17:01.545Z,6.33
2018-04-23T00:19:29.004Z,7.10
2018-04-23T00:21:56.483Z,7.70
2018-04-23T00:24:23.948Z,7.00
2018-04-23T00:26:51.431Z,7.83
2018-04-23T00:29:18.885Z,8.07
2018-04-23T00:31:46.425Z,9.20
2018-04-23T00:34:13.885Z,7.73
2018-04-23T00:36:41.366Z,8.13
2018-04-23T00:39:08.825Z,9.20
2018-04-23T00:41:36.302Z,9.03
2018-04-23T00:44:03.753Z,9.60
2018-04-23T00:46:31.230Z,9.23
2018-04-23T00:48:58.700Z,10.07
2018-04-23T00:51:26.182Z,9.00
2018-04-23T00:53:53.654Z,8.20
2018-04-23T00:56:21.134Z,8.53
2018-04-23T00:58:48.598Z,8.63
2018-04-23T01:01:16.074Z,8.20
2018-04-23T01:03:43.541Z,8.90
2018-04-23T01:06:11.022Z,8.27
2018-04-23T01:08:38.492Z,8.27
2018-04-23T01:11:05.969Z,7.53
2018-04-23T01:13:33.430Z,7.07
2018-04-23T01:16:00.901Z,7.73
2018-04-23T01:18:28.385Z,7.60
2018-04-23T01:20:55.885Z,7.20
2018-04-23T01:23:23.370Z,7.67
2018-04-23T01:25:50.834Z,6.83
2018-04-23T01:28:18.314Z,7.70
2018-04-23T01:30:45.765Z,7.73
2018-04-23T01:33:13.243Z,6.77
2018-04-23T01:35:40.710Z,7.33
2018-04-23T01:38:08.185Z,7.07
2018-04-23T01:40:35.645Z,7.37
2018-04-23T01:43:03.130Z,7.63
2018-04-23T01:45:30.582Z,6.70
2018-04-23T01:47:58.060Z,6.37
2018-04-23T01:50:25.522Z,7.20
2018-04-23T01:52:53.012Z,6.47
2018-04-23T01:55:20.470Z,6.33
2018-04-23T01:57:47.954Z,6.33
2018-04-23T02:00:15.409Z,6.33
2018-04-23T02:02:42.891Z,6.93
2018-04-23T02:05:10.345Z,7.17
2018-04-23T02:07:37.818Z,6.30
2018-04-23T02:10:05.274Z,6.50
2018-04-23T02:12:32.749Z,6.00
2018-04-23T02:15:00.201Z,6.70
2018-04-23T02:17:27.682Z,7.00
2018-04-23T02:19:56.070Z,6.77
2018-04-23T02:22:23.550Z,6.87
2018-04-23T02:24:51.018Z,7.00
2018-04-23T02:27:18.502Z,7.40
2018-04-23T02:29:46.031Z,7.47
2018-04-23T02:32:13.519Z,7.90
2018-04-23T02:34:40.974Z,6.97
2018-04-23T02:37:08.460Z,8.17
2018-04-23T02:39:35.917Z,7.00
2018-04-23T02:42:03.376Z,6.60
2018-04-23T02:44:30.865Z,7.00
2018-04-23T02:46:58.321Z,6.60
2018-04-23T02:49:25.804Z,7.03
2018-04-23T02:51:53.270Z,7.80
2018-04-23T02:54:20.749Z,7.37
2018-04-23T02:56:48.211Z,8.20
2018-04-23T02:59:15.690Z,6.87
2018-04-23T03:01:43.145Z,7.00
2018-04-23T03:04:10.626Z,6.53
2018-04-23T03:06:38.094Z,7.87
2018-04-23T03:09:05.569Z,7.57
2018-04-23T03:11:33.029Z,7.60
2018-04-23T03:14:00.519Z,7.40
2018-04-23T03:16:27.986Z,7.83
2018-04-23T03:18:55.465Z,7.60
2018-04-23T03:21:22.916Z,8.03
2018-04-23T03:23:50.394Z,7.57
2018-04-23T03:26:17.861Z,7.43
2018-04-23T03:28:45.341Z,7.63
2018-04-23T03:31:12.802Z,8.10
2018-04-23T03:33:40.273Z,7.73
2018-04-23T03:36:08.486Z,8.13
2018-04-23T03:38:35.961Z,8.30
2018-04-23T03:41:03.429Z,7.43
2018-04-23T03:43:30.902Z,8.00
2018-04-23T03:45:58.357Z,8.50
2018-04-23T03:48:25.838Z,8.27
2018-04-23T03:50:53.306Z,8.33
2018-04-23T03:53:20.793Z,7.67
2018-04-23T03:55:48.253Z,8.97
2018-04-23T03:58:15.744Z,8.07
2018-04-23T04:00:43.206Z,8.53
2018-04-23T04:03:10.676Z,8.43
2018-04-23T04:05:38.146Z,8.47
2018-04-23T04:08:05.639Z,8.40
2018-04-23T04:10:33.103Z,8.80
2018-04-23T04:13:12.518Z,9.60
2018-04-23T04:15:51.725Z,8.70
2018-04-23T04:18:39.813Z,8.30
2018-04-23T04:21:07.273Z,8.90
2018-04-23T04:23:34.748Z,8.33
2018-04-23T04:26:02.219Z,9.00
2018-04-23T04:28:29.702Z,9.13
2018-04-23T04:30:58.021Z,8.87
2018-04-23T04:33:25.496Z,9.63
2018-04-23T04:35:52.974Z,9.80
2018-04-23T04:38:20.500Z,10.13
2018-04-23T04:40:47.933Z,9.50
2018-04-23T04:43:15.393Z,9.80
2018-04-23T04:45:42.877Z,9.07
2018-04-23T04:48:10.338Z,9.50
2018-04-23T04:50:37.813Z,9.90
2018-04-23T04:53:05.281Z,10.03
2018-04-23T04:55:32.767Z,11.13
2018-04-23T04:58:00.234Z,9.97
2018-04-23T05:00:27.717Z,10.27
2018-04-23T05:02:55.169Z,9.43
2018-04-23T05:05:22.661Z,10.77
2018-04-23T05:07:50.136Z,10.23
2018-04-23T05:10:17.618Z,9.57
2018-04-23T05:12:45.149Z,8.93
2018-04-23T05:15:12.636Z,8.13
2018-04-23T05:17:40.099Z,8.43
2018-04-23T05:20:07.581Z,9.67
2018-04-23T05:22:35.036Z,8.83
2018-04-23T05:25:02.529Z,8.73
2018-04-23T05:27:29.995Z,9.50
2018-04-23T05:29:57.481Z,8.40
2018-04-23T05:32:24.959Z,7.93
2018-04-23T05:34:52.438Z,8.13
2018-04-23T05:37:19.898Z,8.73
2018-04-23T05:39:47.380Z,8.00
2018-04-23T05:42:14.836Z,7.83
2018-04-23T05:44:42.313Z,9.27
2018-04-23T05:47:09.765Z,9.00
2018-04-23T05:49:37.266Z,9.00
2018-04-23T05:52:04.729Z,8.83
2018-04-23T05:54:32.181Z,8.60
2018-04-23T05:56:59.659Z,8.40
2018-04-23T05:59:27.109Z,8.73
2018-04-23T06:01:54.594Z,8.50
2018-04-23T06:04:22.054Z,7.87
2018-04-23T06:06:49.537Z,7.00
2018-04-23T06:09:17.004Z,7.60
2018-04-23T06:11:44.478Z,6.27
2018-04-23T06:14:11.954Z,5.70
2018-04-23T06:16:39.438Z,6.00
2018-04-23T06:19:06.902Z,5.50
2018-04-23T06:21:34.379Z,5.97
2018-04-23T06:24:01.847Z,5.70
2018-04-23T06:26:29.324Z,5.83
2018-04-23T06:28:56.787Z,5.53
2018-04-23T06:31:24.273Z,5.97
2018-04-23T06:33:51.740Z,5.80
2018-04-23T06:36:19.221Z,5.30
2018-04-23T06:38:46.673Z,5.50
2018-04-23T06:41:14.150Z,4.83
2018-04-23T06:43:41.619Z,5.30
2018-04-23T06:49:14.030Z,5.20
2018-04-23T06:51:41.518Z,5.00
2018-04-23T06:54:09.046Z,4.60
2018-04-23T06:56:36.529Z,5.00
2018-04-23T06:59:03.992Z,5.37
2018-04-23T07:01:31.478Z,5.47
2018-04-23T07:03:58.942Z,5.63
2018-04-23T07:06:26.429Z,6.67
2018-04-23T07:08:53.893Z,6.07
2018-04-23T07:11:21.376Z,6.30
2018-04-23T07:13:48.837Z,6.43
2018-04-23T07:16:16.317Z,6.77
2018-04-23T07:18:43.773Z,7.07
2018-04-23T07:21:11.252Z,7.70
2018-04-23T07:23:38.721Z,7.53
2018-04-23T07:26:06.206Z,8.60
2018-04-23T07:28:33.674Z,7.77
2018-04-23T07:31:01.161Z,7.73
2018-04-23T07:33:28.621Z,8.70
2018-04-23T07:35:56.081Z,8.27
2018-04-23T07:38:23.577Z,9.00
2018-04-23T07:40:51.048Z,9.17
2018-04-23T07:43:18.530Z,8.70
2018-04-23T07:45:45.989Z,8.47
2018-04-23T07:48:13.466Z,8.90
2018-04-23T07:50:40.929Z,8.00
2018-04-23T07:53:08.420Z,8.80
2018-04-23T07:55:35.888Z,8.20
2018-04-23T07:58:03.369Z,8.93
2018-04-23T08:00:30.829Z,8.83
2018-04-23T08:02:58.322Z,9.13
2018-04-23T08:05:25.781Z,9.30
2018-04-23T08:07:53.269Z,9.27
2018-04-23T08:10:20.743Z,9.03
2018-04-23T08:12:48.241Z,8.73
2018-04-23T08:15:15.707Z,8.33
2018-04-23T08:17:43.192Z,10.23
2018-04-23T08:20:10.678Z,9.60
2018-04-23T08:22:38.211Z,10.27
2018-04-23T08:25:05.673Z,9.97
2018-04-23T08:27:33.161Z,9.83
2018-04-23T08:30:00.631Z,10.10
2018-04-23T08:32:28.114Z,9.70
2018-04-23T08:34:55.581Z,10.47
2018-04-23T08:37:23.061Z,10.20
2018-04-23T08:39:50.535Z,10.50
2018-04-23T08:42:18.025Z,10.40
2018-04-23T08:44:45.495Z,9.87
2018-04-23T08:47:12.978Z,11.07
2018-04-23T08:49:40.456Z,11.30
2018-04-23T08:52:07.942Z,11.97
2018-04-23T08:54:35.409Z,11.17
2018-04-23T08:57:02.878Z,11.43
2018-04-23T08:59:30.367Z,11.93
2018-04-23T09:01:57.830Z,11.93
2018-04-23T09:04:25.313Z,10.97
2018-04-23T09:06:52.785Z,11.53
2018-04-23T09:09:20.280Z,11.40
2018-04-23T09:11:47.795Z,12.30
2018-04-23T09:14:15.258Z,13.03
2018-04-23T09:16:42.721Z,12.23
2018-04-23T09:19:10.209Z,11.90
2018-04-23T09:21:37.678Z,12.10
2018-04-23T09:24:05.163Z,10.90
2018-04-23T09:26:32.643Z,13.33
2018-04-23T09:29:00.132Z,15.33
2018-04-23T09:31:27.603Z,14.00
2018-04-23T09:33:55.094Z,16.27
2018-04-23T09:36:22.592Z,16.07
2018-04-23T09:38:50.084Z,14.70
2018-04-23T09:41:17.648Z,13.17
2018-04-23T09:43:45.125Z,13.67
2018-04-23T09:46:12.597Z,12.17
2018-04-23T09:48:40.085Z,11.60
2018-04-23T09:51:07.557Z,12.40
2018-04-23T09:53:35.044Z,12.63
2018-04-23T09:56:02.522Z,12.80
2018-04-23T09:58:30.022Z,13.40
2018-04-23T10:00:57.496Z,12.13
2018-04-23T10:03:25.712Z,13.27
2018-04-23T10:05:53.181Z,15.10
2018-04-23T10:08:20.711Z,12.73
2018-04-23T10:10:48.210Z,12.20
2018-04-23T10:13:15.706Z,11.30
2018-04-23T10:15:43.182Z,13.20
2018-04-23T10:18:10.685Z,12.33
2018-04-23T10:20:38.149Z,10.83
2018-04-23T10:23:05.615Z,13.17
2018-04-23T10:25:33.112Z,10.70
2018-04-23T10:28:00.581Z,12.20
2018-04-23T10:30:28.073Z,13.03
2018-04-23T10:32:55.549Z,11.60
2018-04-23T10:35:23.033Z,12.43
2018-04-23T10:37:53.737Z,13.90
2018-04-23T10:40:21.221Z,13.30
2018-04-23T10:42:48.715Z,13.53
2018-04-23T10:45:16.203Z,12.03
2018-04-23T10:47:43.679Z,11.37
2018-04-23T10:50:11.169Z,11.40
2018-04-23T10:52:38.628Z,9.30
2018-04-23T10:55:06.126Z,12.43
2018-04-23T10:57:33.593Z,11.83
2018-04-23T11:00:01.087Z,11.30
2018-04-23T11:02:28.558Z,12.50
2018-04-23T11:04:56.076Z,10.57
2018-04-23T11:07:23.549Z,12.33
2018-04-23T11:09:51.045Z,10.30
2018-04-23T11:12:18.515Z,10.23
2018-04-23T11:14:45.997Z,9.73
2018-04-23T11:17:13.461Z,9.87
2018-04-23T11:19:40.965Z,8.63
2018-04-23T11:22:08.433Z,8.57
2018-04-23T11:24:35.958Z,8.67
2018-04-23T11:27:03.423Z,7.77
2018-04-23T11:29:30.914Z,7.53
2018-04-23T11:31:58.374Z,6.80
2018-04-23T11:34:25.853Z,6.60
2018-04-23T11:36:53.310Z,6.87
2018-04-23T11:39:20.803Z,6.80
2018-04-23T11:41:48.266Z,6.43
2018-04-23T11:44:15.729Z,6.80
2018-04-23T11:46:43.218Z,6.87
2018-04-23T11:49:11.610Z,6.53
2018-04-23T11:51:39.093Z,7.00
2018-04-23T11:54:06.553Z,6.13
2018-04-23T11:56:34.033Z,5.87
2018-04-23T11:59:01.497Z,5.60
2018-04-23T12:01:28.978Z,5.87
2018-04-23T12:03:56.446Z,6.60
2018-04-23T12:06:23.938Z,7.67
2018-04-23T12:08:51.402Z,8.27
2018-04-23T12:11:24.857Z,8.80
2018-04-23T12:13:52.329Z,6.50
2018-04-23T12:16:19.805Z,6.20
2018-04-23T12:18:47.266Z,6.57
2018-04-23T12:21:14.743Z,6.40
2018-04-23T12:23:42.202Z,6.40
2018-04-23T12:26:09.685Z,6.07
2018-04-23T12:28:37.151Z,6.03
2018-04-23T12:31:04.633Z,5.30
2018-04-23T12:33:32.118Z,5.50
2018-04-23T12:35:59.606Z,4.97
2018-04-23T12:38:27.066Z,4.80
2018-04-23T12:40:54.546Z,4.63
2018-04-23T12:43:23.023Z,5.37
2018-04-23T12:45:50.503Z,4.43
2018-04-23T12:48:17.965Z,3.93
2018-04-23T12:50:45.454Z,3.90
2018-04-23T12:53:12.922Z,4.17
2018-04-23T12:55:40.408Z,4.30
2018-04-23T12:58:07.874Z,4.27
2018-04-23T13:00:35.356Z,4.23
2018-04-23T13:03:02.842Z,4.20
2018-04-23T13:05:30.329Z,4.20
2018-04-23T13:07:57.785Z,4.40
2018-04-23T13:10:25.286Z,4.33
2018-04-23T13:12:52.757Z,4.37
2018-04-23T13:15:20.214Z,4.40
2018-04-23T13:17:47.698Z,4.03
2018-04-23T13:20:15.190Z,4.10
2018-04-23T13:22:43.262Z,4.23
2018-04-23T13:25:10.723Z,4.40
2018-04-23T13:27:38.202Z,4.17
2018-04-23T13:30:05.658Z,4.03
2018-04-23T13:32:33.138Z,4.00
2018-04-23T13:35:00.598Z,4.53
2018-04-23T13:37:28.078Z,4.00
2018-04-23T13:39:55.537Z,4.07
2018-04-23T13:42:23.067Z,3.57
2018-04-23T13:44:50.489Z,3.60
2018-04-23T13:47:17.966Z,4.27
2018-04-23T13:49:45.430Z,3.40
2018-04-23T13:52:12.909Z,2.90
2018-04-23T13:54:40.366Z,3.70
2018-04-23T13:57:07.848Z,3.57
2018-04-23T13:59:35.309Z,3.60
2018-04-23T14:02:02.793Z,3.70
2018-04-23T14:04:30.270Z,4.10
2018-04-23T14:06:57.773Z,4.27
2018-04-23T14:09:25.287Z,4.17
2018-04-23T14:11:52.758Z,4.50
2018-04-23T14:14:20.218Z,4.13
2018-04-23T14:16:47.698Z,4.27
2018-04-23T14:19:15.168Z,3.40
2018-04-23T14:21:42.651Z,3.60
2018-04-23T14:24:10.119Z,4.00
2018-04-23T14:26:37.642Z,4.27
2018-04-23T14:29:05.099Z,4.00
2018-04-23T14:31:33.157Z,4.03
2018-04-23T14:34:00.615Z,4.80
2018-04-23T14:36:28.069Z,4.40
2018-04-23T14:38:55.549Z,4.20
2018-04-23T14:41:23.012Z,4.00
2018-04-23T14:43:50.499Z,4.10
2018-04-23T14:46:18.457Z,4.50
2018-04-23T14:48:45.931Z,4.03
2018-04-23T14:51:13.390Z,3.83
2018-04-23T14:53:40.869Z,4.50
2018-04-23T14:56:08.353Z,4.33
2018-04-23T14:58:35.834Z,4.87
2018-04-23T15:01:03.305Z,4.43
2018-04-23T15:03:30.784Z,4.73
2018-04-23T15:05:58.246Z,4.73
2018-04-23T15:08:25.779Z,4.50
2018-04-23T15:10:53.203Z,5.00
2018-04-23T15:13:20.690Z,5.07
2018-04-23T15:15:48.149Z,5.27
2018-04-23T15:18:15.631Z,5.60
2018-04-23T15:20:43.101Z,5.80
2018-04-23T15:23:11.537Z,6.23
2018-04-23T15:25:39.070Z,6.70
2018-04-23T15:28:06.663Z,6.13
2018-04-23T15:30:35.161Z,6.50
2018-04-23T15:33:02.735Z,6.00
2018-04-23T15:35:30.590Z,6.03
2018-04-23T15:37:58.113Z,6.13
2018-04-23T15:40:25.619Z,6.80
2018-04-23T15:42:53.159Z,6.67
2018-04-23T15:45:20.683Z,5.63
2018-04-23T15:47:48.276Z,5.63
2018-04-23T15:50:15.895Z,5.97
2018-04-23T15:52:43.563Z,5.80
2018-04-23T15:55:11.123Z,5.30
2018-04-23T15:57:38.719Z,5.77
2018-04-23T16:00:06.514Z,5.33
2018-04-23T16:02:34.087Z,5.40
2018-04-23T16:05:02.184Z,5.17
2018-04-23T16:07:29.751Z,4.97
2018-04-23T16:09:57.356Z,5.17
2018-04-23T16:12:24.875Z,5.50
2018-04-23T16:14:52.385Z,4.77
2018-04-23T16:17:19.887Z,4.90
2018-04-23T16:19:47.405Z,5.00
2018-04-23T16:22:14.941Z,5.10
2018-04-23T16:24:42.485Z,4.77
2018-04-23T16:27:10.014Z,5.13
2018-04-23T16:29:37.905Z,4.73
2018-04-23T16:32:06.321Z,4.97
2018-04-23T16:34:33.928Z,4.50
2018-04-23T16:37:10.019Z,4.70
2018-04-23T16:39:37.563Z,4.10
2018-04-23T16:42:05.106Z,4.03
2018-04-23T16:44:32.739Z,3.67
2018-04-23T16:47:00.282Z,3.87
2018-04-23T16:49:27.843Z,4.07
2018-04-23T16:51:55.416Z,4.07
2018-04-23T16:54:23.905Z,4.20
2018-04-23T16:56:55.987Z,3.73
2018-04-23T16:59:23.699Z,3.90
2018-04-23T17:01:51.291Z,4.37
2018-04-23T17:04:18.798Z,3.83
2018-04-23T17:06:46.319Z,3.87
2018-04-23T17:09:13.910Z,3.90
2018-04-23T17:11:41.435Z,3.93
2018-04-23T17:14:08.941Z,4.10
2018-04-23T17:16:36.449Z,4.50
2018-04-23T17:19:04.654Z,4.40
2018-04-23T17:21:32.306Z,4.20
2018-04-23T17:24:00.313Z,4.47
2018-04-23T17:26:27.835Z,4.67
2018-04-23T17:28:55.775Z,5.00
2018-04-23T17:31:23.302Z,4.87
2018-04-23T17:33:50.864Z,5.03
2018-04-23T17:36:18.437Z,5.30
2018-04-23T17:38:46.415Z,5.00
2018-04-23T17:41:13.988Z,4.67
2018-04-23T17:43:42.314Z,4.80
2018-04-23T17:46:10.047Z,4.90
2018-04-23T17:48:37.610Z,4.73
2018-04-23T17:51:05.181Z,4.80
2018-04-23T17:53:32.756Z,4.57
2018-04-23T17:56:00.299Z,4.50
2018-04-23T17:58:27.892Z,4.70
2018-04-23T18:00:55.484Z,4.27
2018-04-23T18:03:23.030Z,4.40
2018-04-23T18:05:51.472Z,4.53
2018-04-23T18:08:19.007Z,4.23
2018-04-23T18:10:46.580Z,4.40
2018-04-23T18:13:14.114Z,4.20
2018-04-23T18:15:41.678Z,4.47
2018-04-23T18:18:09.235Z,3.80
2018-04-23T18:20:36.774Z,4.40
2018-04-23T18:23:04.292Z,4.27
2018-04-23T18:25:32.648Z,4.40
2018-04-23T18:28:00.445Z,4.50
2018-04-23T18:30:28.021Z,4.70
2018-04-23T18:32:55.530Z,4.50
2018-04-23T18:35:23.220Z,4.50
2018-04-23T18:37:50.738Z,4.40
2018-04-23T18:40:18.782Z,4.77
2018-04-23T18:42:46.331Z,4.47
2018-04-23T18:45:13.944Z,4.77
2018-04-23T18:47:58.944Z,4.50
2018-04-23T18:50:26.530Z,4.53
2018-04-23T18:52:54.086Z,5.13
2018-04-23T18:55:21.661Z,4.77
2018-04-23T18:57:50.044Z,5.13
2018-04-23T19:00:17.600Z,4.97
2018-04-23T19:02:45.115Z,4.50
2018-04-23T19:05:12.735Z,5.07
2018-04-23T19:07:40.280Z,4.80
